Time;durP1;ratioP1;P1;durP2;ratioP2;P2;SDS_P1;SDS_P2;PMS_P1;PMS_P2;Temp;Humidity;BMP_temperature;BMP_pressure;BME280_temperature;BME280_humidity;BME280_pressure;Samples;Min_cycle;Max_cycle;Signal;HPM_P1;HPM_P2
2022/04/15 00:00:39;;;;;;;77.60;9.10;;;6.00;99.90;;;;;;5030699;28;20111;-76
2022/04/15 00:03:06;;;;;;;11.30;6.93;;;6.00;99.90;;;;;;5014526;28;20045;-76
2022/04/15 00:05:35;;;;;;;15.10;8.43;;;6.00;99.90;;;;;;5014116;28;20232;-76
2022/04/15 00:08:01;;;;;;;13.57;7.50;;;5.90;99.90;;;;;;4992785;28;20508;-76
2022/04/15 00:10:28;;;;;;;9.77;5.60;;;5.90;99.90;;;;;;5026787;28;20120;-76
2022/04/15 00:12:54;;;;;;;9.07;5.00;;;5.90;99.90;;;;;;5013406;28;20124;-76
2022/04/15 00:15:20;;;;;;;9.47;6.77;;;5.90;99.90;;;;;;5028124;28;20045;-75
2022/04/15 00:17:46;;;;;;;12.93;9.17;;;5.90;99.90;;;;;;5025595;28;20091;-75
2022/04/15 00:20:13;;;;;;;10.90;8.47;;;5.80;99.90;;;;;;5029942;28;20073;-76
2022/04/15 00:22:39;;;;;;;13.70;7.57;;;5.80;99.90;;;;;;4997032;28;1000633;-75
2022/04/15 00:25:06;;;;;;;19.10;5.63;;;5.80;99.90;;;;;;5030301;28;20156;-75
2022/04/15 00:27:31;;;;;;;13.07;6.83;;;5.80;99.90;;;;;;5031114;28;20544;-76
2022/04/15 00:29:57;;;;;;;10.50;7.00;;;5.70;99.90;;;;;;5026838;28;20097;-76
2022/04/15 00:32:23;;;;;;;13.17;6.97;;;5.70;99.90;;;;;;5001752;28;20046;-75
2022/04/15 00:34:49;;;;;;;14.50;8.30;;;5.70;99.90;;;;;;5014429;28;20509;-75
2022/04/15 00:37:17;;;;;;;11.63;7.83;;;5.70;99.90;;;;;;5031733;28;20045;-76
2022/04/15 00:39:45;;;;;;;10.43;6.97;;;5.60;99.90;;;;;;5024668;28;20037;-75
2022/04/15 00:42:11;;;;;;;6.73;5.10;;;5.60;99.90;;;;;;5024957;28;20437;-75
2022/04/15 00:44:37;;;;;;;11.47;6.30;;;5.60;99.90;;;;;;5014954;28;20099;-75
2022/04/15 00:47:08;;;;;;;12.20;8.93;;;5.60;99.90;;;;;;5006740;28;20046;-75
2022/04/15 00:49:34;;;;;;;16.40;9.63;;;5.60;99.90;;;;;;4997607;28;20053;-75
2022/04/15 00:52:01;;;;;;;13.37;8.03;;;5.60;99.90;;;;;;5025788;28;20072;-76
2022/04/15 00:54:30;;;;;;;9.23;7.97;;;5.50;99.90;;;;;;5012013;28;20045;-76
2022/04/15 00:56:59;;;;;;;6.97;6.03;;;5.50;99.90;;;;;;4995706;28;20068;-75
2022/04/15 00:59:26;;;;;;;12.63;8.60;;;5.60;99.90;;;;;;5028024;28;20095;-75
2022/04/15 01:01:51;;;;;;;13.03;9.60;;;5.60;99.90;;;;;;5014431;28;20492;-76
2022/04/15 01:04:18;;;;;;;22.70;9.73;;;5.60;99.90;;;;;;5027687;28;20099;-76
2022/04/15 01:06:46;;;;;;;13.13;8.93;;;5.70;99.90;;;;;;5020992;28;20037;-75
2022/04/15 01:09:13;;;;;;;13.00;8.67;;;5.70;99.90;;;;;;5014374;28;20045;-76
2022/04/15 01:11:44;;;;;;;11.57;9.60;;;5.80;99.90;;;;;;5028467;28;20057;-75
2022/04/15 01:14:10;;;;;;;14.77;9.80;;;5.80;99.90;;;;;;5030803;28;20128;-75
2022/04/15 01:16:36;;;;;;;10.17;8.37;;;5.90;99.90;;;;;;5030279;28;20077;-76
2022/04/15 01:19:02;;;;;;;14.27;9.23;;;6.00;99.90;;;;;;5007263;28;20104;-76
2022/04/15 01:21:33;;;;;;;16.80;9.13;;;6.10;99.90;;;;;;5035352;28;20041;-76
2022/04/15 01:24:00;;;;;;;16.67;10.20;;;6.10;99.90;;;;;;5014650;28;20049;-76
2022/04/15 01:26:26;;;;;;;13.90;9.50;;;6.20;99.90;;;;;;5013263;28;20046;-76
2022/04/15 01:28:52;;;;;;;16.80;10.60;;;6.30;99.90;;;;;;5031340;28;20044;-76
2022/04/15 01:31:18;;;;;;;17.83;10.43;;;6.30;99.90;;;;;;5009977;28;20081;-76
2022/04/15 01:33:43;;;;;;;15.37;10.87;;;6.50;99.90;;;;;;5025555;28;20037;-77
2022/04/15 01:36:10;;;;;;;13.07;9.80;;;6.60;99.90;;;;;;5027159;28;20068;-77
2022/04/15 01:38:36;;;;;;;12.00;9.03;;;6.70;99.90;;;;;;5028852;28;20053;-77
2022/04/15 01:41:03;;;;;;;18.27;11.00;;;6.70;99.90;;;;;;5030206;28;20124;-77
2022/04/15 01:43:29;;;;;;;14.57;10.17;;;6.80;99.90;;;;;;5028494;28;20132;-76
2022/04/15 01:45:54;;;;;;;18.13;10.77;;;6.80;99.90;;;;;;5011075;28;20475;-76
2022/04/15 01:48:20;;;;;;;15.03;9.73;;;6.90;99.90;;;;;;4997040;28;20056;-77
2022/04/15 01:50:46;;;;;;;17.07;9.80;;;6.90;99.90;;;;;;5025585;28;20065;-77
2022/04/15 01:53:12;;;;;;;13.97;10.23;;;7.00;99.90;;;;;;5029988;28;20045;-77
2022/04/15 01:55:37;;;;;;;15.60;10.27;;;7.10;99.90;;;;;;5007013;28;20056;-76
2022/04/15 01:58:05;;;;;;;17.43;10.87;;;7.20;99.90;;;;;;4990980;28;20390;-76
2022/04/15 02:00:30;;;;;;;17.13;10.97;;;7.20;99.90;;;;;;5026917;28;20424;-77
2022/04/15 02:02:56;;;;;;;16.43;9.80;;;7.30;99.90;;;;;;5013659;28;20041;-76
2022/04/15 02:05:22;;;;;;;20.87;9.90;;;7.40;99.90;;;;;;5029099;28;20045;-77
2022/04/15 02:07:47;;;;;;;19.17;10.53;;;7.40;99.90;;;;;;5027694;28;20120;-76
2022/04/15 02:10:13;;;;;;;15.90;10.50;;;7.50;99.90;;;;;;5028659;28;20038;-77
2022/04/15 02:12:39;;;;;;;12.87;9.73;;;7.50;99.90;;;;;;5001733;28;20071;-77
2022/04/15 02:15:08;;;;;;;16.43;10.03;;;7.60;99.90;;;;;;5027772;28;20548;-76
2022/04/15 02:17:33;;;;;;;15.50;10.13;;;7.60;99.90;;;;;;5027817;28;20052;-77
2022/04/15 02:19:59;;;;;;;21.10;10.13;;;7.70;99.90;;;;;;5005111;28;20049;-76
2022/04/15 02:22:25;;;;;;;15.73;9.13;;;7.70;99.90;;;;;;5006052;28;20041;-77
2022/04/15 02:24:51;;;;;;;18.27;10.00;;;7.80;99.90;;;;;;5008002;28;20073;-77
2022/04/15 02:27:16;;;;;;;13.47;9.60;;;7.80;99.90;;;;;;5000672;28;20053;-77
2022/04/15 02:29:42;;;;;;;16.07;10.07;;;7.90;99.90;;;;;;5025826;28;20049;-77
2022/04/15 02:32:10;;;;;;;15.87;9.87;;;7.90;99.90;;;;;;5029432;28;20303;-76
2022/04/15 02:34:35;;;;;;;18.57;9.30;;;7.90;99.90;;;;;;5012486;28;20104;-76
2022/04/15 02:37:01;;;;;;;20.07;9.77;;;8.00;99.90;;;;;;5008225;28;20071;-77
2022/04/15 02:39:27;;;;;;;20.17;10.50;;;8.00;99.90;;;;;;5026299;28;20468;-76
2022/04/15 02:41:55;;;;;;;15.47;9.17;;;8.00;99.90;;;;;;4994737;28;20612;-77
2022/04/15 02:44:21;;;;;;;18.77;10.43;;;8.10;99.90;;;;;;5028056;28;20037;-77
2022/04/15 02:46:47;;;;;;;19.30;11.07;;;8.10;99.90;;;;;;5027442;28;20051;-77
2022/04/15 02:49:15;;;;;;;18.37;10.57;;;8.10;99.90;;;;;;5028142;28;20088;-77
2022/04/15 02:51:40;;;;;;;16.63;9.90;;;8.10;99.90;;;;;;4996753;28;20059;-77
2022/04/15 02:54:06;;;;;;;18.93;10.53;;;8.20;99.90;;;;;;5022999;28;20041;-77
2022/04/15 02:56:32;;;;;;;19.60;10.30;;;8.20;99.90;;;;;;5027019;28;20497;-77
2022/04/15 02:58:57;;;;;;;16.93;9.93;;;8.20;99.90;;;;;;5029055;28;20160;-77
2022/04/15 03:01:23;;;;;;;19.57;10.00;;;8.20;99.90;;;;;;4988039;28;20091;-77
2022/04/15 03:03:49;;;;;;;20.03;10.07;;;8.10;99.90;;;;;;5026308;28;20518;-77
2022/04/15 03:06:16;;;;;;;17.47;10.27;;;8.10;99.90;;;;;;5015695;28;20109;-77
2022/04/15 03:08:42;;;;;;;19.20;9.57;;;8.20;99.90;;;;;;5014351;28;20053;-77
2022/04/15 03:11:08;;;;;;;14.17;9.53;;;8.20;99.90;;;;;;5034101;28;20115;-77
2022/04/15 03:13:34;;;;;;;17.13;9.77;;;8.20;99.90;;;;;;5026432;28;20120;-77
2022/04/15 03:16:00;;;;;;;15.33;9.27;;;8.20;99.90;;;;;;5024732;28;20037;-77
2022/04/15 03:18:26;;;;;;;13.83;9.60;;;8.20;99.90;;;;;;5016136;28;20099;-77
2022/04/15 03:20:52;;;;;;;17.80;9.93;;;8.30;99.90;;;;;;4991987;28;20080;-76
2022/04/15 03:23:21;;;;;;;15.83;9.03;;;8.30;99.90;;;;;;5015493;28;20456;-77
2022/04/15 03:25:47;;;;;;;12.17;9.27;;;8.30;99.90;;;;;;5016447;28;20041;-77
2022/04/15 03:28:13;;;;;;;14.77;9.07;;;8.30;99.90;;;;;;5013170;28;20042;-77
2022/04/15 03:30:39;;;;;;;12.67;8.40;;;8.30;99.90;;;;;;5017128;28;20037;-77
2022/04/15 03:33:04;;;;;;;14.13;8.40;;;8.40;99.90;;;;;;5015665;28;20046;-77
2022/04/15 03:35:30;;;;;;;15.80;8.73;;;8.40;99.90;;;;;;5032784;28;20057;-77
2022/04/15 03:37:56;;;;;;;15.87;9.70;;;8.40;99.90;;;;;;5013522;28;20048;-77
2022/04/15 03:40:24;;;;;;;14.10;9.33;;;8.40;99.90;;;;;;5016585;28;20408;-77
2022/04/15 03:42:51;;;;;;;14.80;9.47;;;8.40;99.90;;;;;;5015701;28;20056;-77
2022/04/15 03:45:22;;;;;;;16.67;9.40;;;8.40;99.90;;;;;;5032291;28;20045;-77
2022/04/15 03:47:48;;;;;;;15.33;9.30;;;8.50;99.90;;;;;;5033200;28;20435;-77
2022/04/15 03:50:15;;;;;;;14.07;9.73;;;8.50;99.90;;;;;;5015411;28;20042;-77
2022/04/15 03:52:46;;;;;;;13.87;8.20;;;8.50;99.90;;;;;;5033107;28;20068;-77
2022/04/15 03:55:13;;;;;;;18.37;10.13;;;8.50;99.90;;;;;;5031936;28;20088;-77
2022/04/15 03:57:40;;;;;;;13.93;8.13;;;8.50;99.90;;;;;;5031522;28;20506;-77
2022/04/15 04:00:08;;;;;;;16.77;9.97;;;8.50;99.90;;;;;;5031728;28;20386;-77
2022/04/15 04:02:34;;;;;;;14.90;9.67;;;8.50;99.90;;;;;;5031062;28;20148;-77
2022/04/15 04:04:59;;;;;;;15.30;10.20;;;8.50;99.90;;;;;;4999178;28;20509;-77
2022/04/15 04:07:25;;;;;;;14.53;8.93;;;8.50;99.90;;;;;;5032719;28;20420;-77
2022/04/15 04:09:51;;;;;;;14.90;10.23;;;8.50;99.90;;;;;;5015306;28;20048;-77
2022/04/15 04:12:17;;;;;;;17.60;9.67;;;8.50;99.90;;;;;;5015962;28;20045;-77
2022/04/15 04:14:44;;;;;;;14.30;9.37;;;8.50;99.90;;;;;;5031073;28;20052;-77
2022/04/15 04:17:09;;;;;;;14.70;9.00;;;8.50;99.90;;;;;;5032122;28;20069;-77
2022/04/15 04:19:36;;;;;;;13.67;9.07;;;8.50;99.90;;;;;;5025697;28;20630;-77
2022/04/15 04:22:02;;;;;;;15.00;8.37;;;8.60;99.90;;;;;;5029813;28;20505;-77
2022/04/15 04:24:28;;;;;;;17.27;9.40;;;8.60;99.90;;;;;;5014133;28;20071;-77
2022/04/15 04:26:54;;;;;;;13.60;8.47;;;8.60;99.90;;;;;;5015313;28;20455;-77
2022/04/15 04:29:19;;;;;;;11.63;8.57;;;8.60;99.90;;;;;;5028060;28;20037;-76
2022/04/15 04:31:46;;;;;;;15.07;7.97;;;8.60;99.90;;;;;;5032315;28;20381;-77
2022/04/15 04:34:12;;;;;;;12.70;7.90;;;8.60;99.90;;;;;;5029315;28;20429;-77
2022/04/15 04:36:38;;;;;;;12.10;8.23;;;8.60;99.90;;;;;;5029573;28;20050;-77
2022/04/15 04:39:08;;;;;;;14.83;7.90;;;8.60;99.90;;;;;;5013371;28;20464;-76
2022/04/15 04:41:34;;;;;;;13.03;8.07;;;8.70;99.90;;;;;;5031316;28;20041;-77
2022/04/15 04:44:00;;;;;;;13.33;7.30;;;8.70;99.90;;;;;;5025154;28;20041;-76
2022/04/15 04:46:25;;;;;;;11.90;7.87;;;8.70;99.90;;;;;;5014374;28;20457;-76
2022/04/15 04:48:53;;;;;;;17.30;8.47;;;8.70;99.90;;;;;;5030028;28;20512;-77
2022/04/15 04:51:18;;;;;;;16.27;8.30;;;8.70;99.90;;;;;;5014793;28;20064;-77
2022/04/15 04:53:44;;;;;;;17.23;8.53;;;8.70;99.90;;;;;;5025050;28;20080;-77
2022/04/15 04:56:10;;;;;;;9.27;8.10;;;8.70;99.90;;;;;;5028940;28;20497;-76
2022/04/15 04:58:36;;;;;;;12.93;7.80;;;8.70;99.90;;;;;;5006799;28;20129;-74
2022/04/15 05:01:01;;;;;;;10.63;7.77;;;8.70;99.90;;;;;;5013723;28;20049;-76
2022/04/15 05:03:27;;;;;;;9.93;7.83;;;8.60;99.90;;;;;;5031509;28;20502;-77
2022/04/15 05:05:54;;;;;;;8.73;7.83;;;8.70;99.90;;;;;;5032458;28;20039;-76
2022/04/15 05:08:20;;;;;;;9.37;7.63;;;8.60;99.90;;;;;;5028600;28;20136;-76
2022/04/15 05:10:45;;;;;;;9.77;7.53;;;8.60;99.90;;;;;;5024491;28;20116;-76
2022/04/15 05:13:11;;;;;;;15.80;7.83;;;8.60;99.90;;;;;;5032533;28;20056;-76
2022/04/15 05:15:37;;;;;;;10.80;8.10;;;8.60;99.90;;;;;;5012196;28;20048;-76
2022/04/15 05:18:02;;;;;;;10.47;7.77;;;8.60;99.90;;;;;;5028393;28;20057;-76
2022/04/15 05:20:29;;;;;;;11.10;8.23;;;8.60;99.90;;;;;;5031094;28;20072;-76
2022/04/15 05:22:56;;;;;;;8.97;8.07;;;8.60;99.90;;;;;;5026448;28;20033;-76
2022/04/15 05:25:21;;;;;;;10.83;7.70;;;8.60;99.90;;;;;;5008990;28;20073;-76
2022/04/15 05:27:47;;;;;;;7.90;6.73;;;8.70;99.90;;;;;;5029972;28;20072;-76
2022/04/15 05:30:13;;;;;;;10.13;7.87;;;8.70;99.90;;;;;;5024075;28;20168;-76
2022/04/15 05:32:38;;;;;;;10.30;6.77;;;8.70;99.90;;;;;;5030998;28;20053;-77
2022/04/15 05:35:05;;;;;;;9.07;6.83;;;8.70;99.90;;;;;;4994680;28;20484;-75
2022/04/15 05:37:31;;;;;;;7.20;5.90;;;8.70;99.90;;;;;;5012043;28;20037;-75
2022/04/15 05:39:58;;;;;;;8.17;5.90;;;8.70;99.90;;;;;;5030970;28;20116;-76
2022/04/15 05:42:26;;;;;;;10.07;5.83;;;8.70;99.90;;;;;;5012984;28;20479;-77
2022/04/15 05:44:52;;;;;;;9.10;6.47;;;8.80;99.90;;;;;;4994950;28;20050;-75
2022/04/15 05:47:18;;;;;;;7.60;6.03;;;8.80;99.90;;;;;;5025941;28;20505;-77
2022/04/15 05:49:43;;;;;;;6.90;5.87;;;8.80;99.90;;;;;;5029594;28;20037;-77
2022/04/15 05:52:09;;;;;;;7.10;5.40;;;8.80;99.90;;;;;;5011180;28;20103;-77
2022/04/15 05:54:35;;;;;;;7.87;5.20;;;8.80;99.90;;;;;;4991650;28;20566;-76
2022/04/15 05:57:02;;;;;;;7.10;5.03;;;8.80;99.90;;;;;;5012678;28;20045;-77
2022/04/15 05:59:28;;;;;;;6.10;4.53;;;8.80;99.90;;;;;;5029622;28;20054;-76
2022/04/15 06:01:53;;;;;;;6.73;4.00;;;8.80;99.90;;;;;;5030040;28;20052;-76
2022/04/15 06:04:19;;;;;;;4.73;4.20;;;8.70;99.90;;;;;;5010848;28;20041;-76
2022/04/15 06:06:47;;;;;;;8.77;4.30;;;8.70;99.90;;;;;;4996554;28;20091;-75
2022/04/15 06:09:13;;;;;;;5.77;4.17;;;8.70;99.90;;;;;;5011735;28;20133;-77
2022/04/15 06:11:41;;;;;;;5.90;3.50;;;8.70;99.90;;;;;;5030382;28;20136;-75
2022/04/15 06:14:08;;;;;;;6.57;3.50;;;8.70;99.90;;;;;;5011899;28;20042;-74
2022/04/15 06:16:37;;;;;;;5.33;3.37;;;8.70;99.90;;;;;;5028179;28;20105;-76
2022/04/15 06:19:03;;;;;;;6.33;3.70;;;8.70;99.90;;;;;;5032263;28;20313;-77
2022/04/15 06:21:28;;;;;;;6.07;3.43;;;8.60;99.90;;;;;;5028484;28;20477;-77
2022/04/15 06:23:54;;;;;;;8.33;3.77;;;8.70;99.90;;;;;;5021896;28;20045;-77
2022/04/15 06:26:20;;;;;;;8.10;3.53;;;8.60;99.90;;;;;;5021442;28;20123;-75
2022/04/15 06:28:45;;;;;;;8.37;4.17;;;8.70;99.90;;;;;;5013128;28;20044;-76
2022/04/15 06:31:12;;;;;;;5.30;4.00;;;8.60;99.90;;;;;;4998085;28;20042;-74
2022/04/15 06:33:38;;;;;;;5.83;4.23;;;8.60;99.90;;;;;;5019647;28;20042;-75
2022/04/15 06:36:04;;;;;;;7.80;4.10;;;8.60;99.90;;;;;;5048303;28;20682;-75
2022/04/15 06:38:30;;;;;;;6.63;4.80;;;8.60;99.90;;;;;;5000132;28;20100;-76
2022/04/15 06:40:56;;;;;;;6.93;5.40;;;8.60;99.90;;;;;;5030851;28;20041;-75
2022/04/15 06:43:21;;;;;;;7.27;5.40;;;8.60;99.90;;;;;;5002961;28;20073;-75
2022/04/15 06:45:47;;;;;;;9.50;5.20;;;8.60;99.90;;;;;;5021229;28;20065;-75
2022/04/15 06:48:14;;;;;;;7.07;5.30;;;8.60;99.90;;;;;;5003106;28;20136;-74
2022/04/15 06:50:40;;;;;;;7.83;5.50;;;8.60;99.90;;;;;;5015046;28;20578;-76
2022/04/15 06:53:07;;;;;;;7.47;5.73;;;8.70;99.90;;;;;;5015548;28;20073;-75
2022/04/15 06:55:32;;;;;;;9.80;5.90;;;8.70;99.90;;;;;;5016156;28;21085;-76
2022/04/15 06:57:58;;;;;;;8.30;6.30;;;8.70;99.90;;;;;;4999500;28;20049;-75
2022/04/15 07:00:24;;;;;;;11.63;5.80;;;8.70;99.90;;;;;;4988837;28;20057;-74
2022/04/15 07:02:50;;;;;;;11.13;6.00;;;8.70;99.90;;;;;;5007886;28;20379;-75
2022/04/15 07:05:17;;;;;;;9.63;5.53;;;8.70;99.90;;;;;;5016197;28;20421;-75
2022/04/15 07:07:43;;;;;;;8.93;6.37;;;8.70;99.90;;;;;;5016819;28;20051;-76
2022/04/15 07:10:11;;;;;;;10.13;6.63;;;8.70;99.90;;;;;;5016968;28;20041;-76
2022/04/15 07:12:37;;;;;;;10.90;7.60;;;8.80;99.90;;;;;;5015340;28;20041;-76
2022/04/15 07:15:03;;;;;;;12.83;7.10;;;8.80;99.90;;;;;;5049845;28;20060;-76
2022/04/15 07:17:29;;;;;;;11.20;8.03;;;8.80;99.90;;;;;;4989211;28;20054;-76
2022/04/15 07:19:55;;;;;;;10.13;7.67;;;8.80;99.90;;;;;;5019044;28;20041;-76
2022/04/15 07:22:22;;;;;;;13.23;8.10;;;8.90;99.90;;;;;;5024717;28;20040;-76
2022/04/15 07:24:49;;;;;;;11.40;7.97;;;8.90;99.90;;;;;;5022486;28;20705;-76
2022/04/15 07:27:16;;;;;;;10.73;7.60;;;9.00;99.90;;;;;;5018003;28;20034;-76
2022/04/15 07:29:42;;;;;;;13.57;8.80;;;9.00;99.90;;;;;;5024258;28;20056;-76
2022/04/15 07:32:08;;;;;;;15.60;8.13;;;9.00;99.90;;;;;;5020709;28;20049;-76
2022/04/15 07:34:34;;;;;;;15.90;8.13;;;9.10;99.90;;;;;;5002602;28;20050;-76
2022/04/15 07:37:03;;;;;;;12.70;8.50;;;9.10;99.90;;;;;;5019675;28;20073;-76
2022/04/15 07:39:31;;;;;;;17.90;8.37;;;9.10;99.90;;;;;;5021129;28;20107;-76
2022/04/15 07:41:57;;;;;;;15.03;9.57;;;9.10;99.90;;;;;;5014615;28;20467;-74
2022/04/15 07:44:23;;;;;;;18.27;9.77;;;9.20;99.90;;;;;;5004526;28;20037;-76
2022/04/15 07:46:49;;;;;;;15.63;8.97;;;9.20;99.90;;;;;;5021832;28;20116;-76
2022/04/15 07:49:15;;;;;;;18.40;11.10;;;9.20;99.90;;;;;;5023619;28;20057;-75
2022/04/15 07:51:42;;;;;;;17.90;10.47;;;9.30;99.90;;;;;;5004869;28;20073;-76
2022/04/15 07:54:09;;;;;;;18.63;11.50;;;9.30;99.90;;;;;;5024773;28;20136;-76
2022/04/15 07:56:36;;;;;;;19.73;10.47;;;9.30;99.90;;;;;;5028764;28;20045;-76
2022/04/15 07:59:03;;;;;;;16.40;11.03;;;9.40;99.90;;;;;;5025108;28;20056;-76
2022/04/15 08:01:28;;;;;;;16.73;11.13;;;9.40;99.90;;;;;;5016423;28;20045;-76
2022/04/15 08:03:55;;;;;;;19.80;11.00;;;9.50;99.90;;;;;;5035973;28;20068;-76
2022/04/15 08:06:22;;;;;;;21.63;12.07;;;9.50;99.90;;;;;;4989053;28;20041;-77
2022/04/15 08:08:48;;;;;;;18.77;11.53;;;9.60;99.90;;;;;;5005425;28;20080;-76
2022/04/15 08:11:14;;;;;;;18.40;11.43;;;9.60;99.90;;;;;;5029666;28;20037;-77
2022/04/15 08:13:41;;;;;;;18.20;10.33;;;9.60;99.90;;;;;;5003413;28;20053;-76
2022/04/15 08:16:08;;;;;;;16.63;11.17;;;9.70;99.90;;;;;;5007209;28;20140;-76
2022/04/15 08:18:34;;;;;;;17.30;11.50;;;9.80;99.90;;;;;;5021208;28;20092;-76
2022/04/15 08:21:00;;;;;;;17.27;10.93;;;9.80;99.90;;;;;;5006990;28;20077;-74
2022/04/15 08:23:27;;;;;;;18.83;11.30;;;9.90;99.90;;;;;;5021837;28;20128;-76
2022/04/15 08:25:52;;;;;;;18.10;12.20;;;9.90;99.90;;;;;;5016699;28;20077;-76
2022/04/15 08:28:18;;;;;;;17.90;11.73;;;10.00;99.90;;;;;;5019856;28;20057;-75
2022/04/15 08:30:46;;;;;;;17.63;11.23;;;10.00;99.90;;;;;;5015256;28;20785;-77
2022/04/15 08:33:12;;;;;;;17.03;10.33;;;10.10;99.90;;;;;;5021624;28;20049;-76
2022/04/15 08:35:39;;;;;;;16.27;10.00;;;10.10;99.90;;;;;;5006391;28;20045;-76
2022/04/15 08:38:06;;;;;;;16.13;11.27;;;10.10;99.90;;;;;;5016199;28;20050;-76
2022/04/15 08:40:35;;;;;;;15.63;10.73;;;10.20;99.90;;;;;;5011867;28;20061;-77
2022/04/15 08:43:02;;;;;;;14.40;10.50;;;10.20;99.90;;;;;;4991792;28;20056;-75
2022/04/15 08:45:29;;;;;;;15.37;10.40;;;10.30;99.90;;;;;;5032481;28;20122;-74
2022/04/15 08:47:59;;;;;;;13.03;8.73;;;10.30;99.90;;;;;;5032518;28;20182;-74
2022/04/15 08:50:26;;;;;;;13.13;9.10;;;10.30;99.90;;;;;;5031346;28;20041;-74
2022/04/15 08:52:53;;;;;;;17.77;9.23;;;10.40;99.90;;;;;;5012368;28;20443;-75
2022/04/15 08:55:21;;;;;;;13.53;9.00;;;10.40;99.90;;;;;;5034387;28;20032;-75
2022/04/15 08:57:47;;;;;;;18.07;8.20;;;10.50;99.90;;;;;;5030682;28;20077;-74
2022/04/15 09:00:13;;;;;;;26.37;9.33;;;10.50;99.90;;;;;;5029008;28;20065;-75
2022/04/15 09:02:39;;;;;;;13.00;8.10;;;10.50;99.90;;;;;;5056867;28;20116;-75
2022/04/15 09:05:08;;;;;;;13.73;8.77;;;10.60;99.90;;;;;;5025438;28;20037;-75
2022/04/15 09:07:36;;;;;;;13.27;8.47;;;10.70;99.90;;;;;;5030054;28;20053;-75
2022/04/15 09:10:03;;;;;;;17.00;8.10;;;10.80;99.90;;;;;;5000325;28;20056;-74
2022/04/15 09:12:30;;;;;;;14.03;7.80;;;10.80;99.90;;;;;;5015243;28;20058;-74
2022/04/15 09:14:58;;;;;;;11.90;7.27;;;10.80;99.90;;;;;;5014550;28;20053;-73
2022/04/15 09:17:27;;;;;;;15.90;8.10;;;10.90;99.90;;;;;;5033091;28;20056;-75
2022/04/15 09:19:53;;;;;;;10.93;7.50;;;10.90;99.90;;;;;;5031435;28;20059;-75
2022/04/15 09:22:20;;;;;;;13.93;7.77;;;10.90;99.90;;;;;;5034097;28;20099;-77
2022/04/15 09:24:47;;;;;;;12.47;7.27;;;10.90;99.90;;;;;;5030486;28;20100;-75
2022/04/15 09:27:14;;;;;;;13.50;6.57;;;11.00;99.90;;;;;;5035225;28;20053;-75
2022/04/15 09:29:40;;;;;;;10.83;6.70;;;11.00;99.90;;;;;;5009287;28;20046;-75
2022/04/15 09:32:09;;;;;;;14.60;7.70;;;11.00;99.90;;;;;;5033811;28;20051;-75
2022/04/15 09:34:52;;;;;;;16.77;7.10;;;11.10;99.90;;;;;;5029066;28;20045;-75
2022/04/15 09:37:20;;;;;;;12.23;5.90;;;11.30;99.90;;;;;;5026182;28;20057;-76
2022/04/15 09:40:09;;;;;;;9.70;5.30;;;11.40;99.90;;;;;;5022536;28;20408;-74
2022/04/15 09:42:36;;;;;;;9.90;5.70;;;11.50;99.90;;;;;;4990978;28;20052;-75
2022/04/15 09:45:13;;;;;;;8.63;4.93;;;11.60;99.90;;;;;;4998912;28;20072;-75
2022/04/15 09:47:39;;;;;;;10.93;5.03;;;11.80;99.90;;;;;;5020239;28;20489;-75
2022/04/15 09:50:06;;;;;;;8.53;4.93;;;12.10;99.90;;;;;;5020478;28;20034;-76
2022/04/15 09:52:34;;;;;;;10.77;5.10;;;12.40;99.90;;;;;;5021962;28;20125;-75
2022/04/15 09:55:02;;;;;;;9.03;5.10;;;12.50;99.90;;;;;;5007888;28;20083;-74
2022/04/15 09:57:33;;;;;;;8.73;4.50;;;12.60;99.90;;;;;;4999966;28;20038;-74
2022/04/15 10:00:05;;;;;;;8.10;4.53;;;12.70;99.90;;;;;;5029422;28;20413;-75
2022/04/15 10:02:41;;;;;;;9.80;5.10;;;12.70;99.90;;;;;;5026370;28;20056;-73
2022/04/15 10:05:08;;;;;;;9.80;5.40;;;12.70;99.90;;;;;;5024791;28;20041;-73
2022/04/15 10:07:35;;;;;;;9.73;5.03;;;12.60;99.90;;;;;;5030609;28;20090;-74
2022/04/15 10:10:02;;;;;;;7.87;4.67;;;12.60;99.90;;;;;;5036816;28;20095;-75
2022/04/15 10:12:28;;;;;;;7.77;4.60;;;12.60;99.90;;;;;;5003469;28;20046;-75
2022/04/15 10:14:55;;;;;;;9.40;5.33;;;12.60;99.90;;;;;;5019980;28;20496;-75
2022/04/15 10:17:23;;;;;;;11.93;5.47;;;12.70;99.90;;;;;;5006443;28;20712;-76
2022/04/15 10:19:49;;;;;;;9.60;4.63;;;12.70;99.90;;;;;;5006117;28;20048;-75
2022/04/15 10:22:16;;;;;;;7.73;5.10;;;12.70;99.90;;;;;;5031137;28;20042;-74
2022/04/15 10:24:43;;;;;;;9.23;5.50;;;12.80;99.90;;;;;;5027802;28;20053;-74
2022/04/15 10:27:11;;;;;;;11.13;5.70;;;12.80;99.90;;;;;;4998470;28;20841;-74
2022/04/15 10:29:37;;;;;;;11.00;5.67;;;12.80;99.90;;;;;;5019435;28;20041;-76
2022/04/15 10:32:11;;;;;;;10.53;6.13;;;12.80;99.90;;;;;;5007308;28;20041;-74
2022/04/15 10:34:44;;;;;;;9.90;6.00;;;12.80;99.90;;;;;;5020786;28;20119;-75
2022/04/15 10:37:10;;;;;;;7.40;5.35;;;12.90;99.90;;;;;;5022842;28;20041;-75
2022/04/15 10:39:47;;;;;;;9.17;5.90;;;12.90;99.90;;;;;;5005535;28;20152;-77
2022/04/15 10:42:18;;;;;;;9.53;5.07;;;13.00;99.90;;;;;;5021239;28;20054;-77
2022/04/15 10:44:44;;;;;;;11.20;6.23;;;13.00;99.90;;;;;;4999931;28;20107;-74
2022/04/15 10:47:12;;;;;;;11.03;6.03;;;13.00;99.90;;;;;;5030439;28;20033;-74
2022/04/15 10:49:39;;;;;;;8.10;5.23;;;13.00;99.90;;;;;;5019950;28;20153;-75
2022/04/15 10:52:16;;;;;;;8.37;5.87;;;13.00;99.90;;;;;;5009436;28;20451;-76
2022/04/15 10:54:48;;;;;;;9.33;6.00;;;13.10;99.90;;;;;;5023812;28;20038;-75
2022/04/15 10:57:15;;;;;;;9.67;6.30;;;13.10;99.90;;;;;;5024865;28;20059;-74
2022/04/15 11:02:39;;;;;;;10.43;5.67;;;13.00;99.90;;;;;;5022659;28;20088;-75
2022/04/15 11:05:07;;;;;;;9.68;5.88;;;13.00;99.90;;;;;;5022753;28;20107;-76
2022/04/15 11:07:43;;;;;;;10.23;6.07;;;13.00;99.90;;;;;;5027970;28;20121;-76
2022/04/15 11:10:18;;;;;;;10.53;5.87;;;13.00;99.90;;;;;;5029808;28;20417;-76
2022/04/15 11:12:44;;;;;;;11.20;6.47;;;13.00;99.90;;;;;;5014757;28;20080;-76
2022/04/15 11:15:11;;;;;;;10.63;6.07;;;13.00;99.90;;;;;;5021863;28;20049;-75
2022/04/15 11:17:38;;;;;;;11.10;5.87;;;13.10;99.90;;;;;;5024616;28;20076;-74
2022/04/15 11:20:06;;;;;;;10.80;5.70;;;13.00;99.90;;;;;;5021117;28;20373;-76
2022/04/15 11:22:36;;;;;;;7.23;5.67;;;13.00;99.90;;;;;;5030815;28;20509;-74
2022/04/15 11:25:02;;;;;;;9.17;5.97;;;13.00;99.90;;;;;;5010327;28;20480;-75
2022/04/15 11:27:29;;;;;;;10.77;7.07;;;13.00;99.90;;;;;;5030231;28;20413;-76
2022/04/15 11:29:56;;;;;;;11.23;6.73;;;13.00;99.90;;;;;;5032294;28;20107;-74
2022/04/15 11:32:22;;;;;;;11.70;6.40;;;13.00;99.90;;;;;;5031974;28;20060;-76
2022/04/15 11:34:54;;;;;;;11.47;7.03;;;13.00;99.90;;;;;;5010657;28;20123;-75
2022/04/15 11:37:20;;;;;;;10.27;6.10;;;13.00;99.90;;;;;;5026126;28;20121;-74
2022/04/15 11:39:47;;;;;;;9.13;6.30;;;13.00;99.90;;;;;;5036048;28;20112;-75
2022/04/15 11:42:15;;;;;;;11.90;6.50;;;12.90;99.90;;;;;;5031419;28;20520;-75
2022/04/15 11:44:43;;;;;;;9.13;6.30;;;12.90;99.90;;;;;;5029106;28;20041;-75
2022/04/15 11:47:23;;;;;;;11.63;6.27;;;12.90;99.90;;;;;;5030683;28;20235;-76
2022/04/15 11:49:51;;;;;;;10.67;6.27;;;12.90;99.90;;;;;;5027500;28;20045;-75
2022/04/15 11:52:21;;;;;;;13.07;6.60;;;13.00;99.90;;;;;;5032459;28;20227;-75
2022/04/15 11:54:47;;;;;;;9.53;6.53;;;13.10;99.90;;;;;;4993971;28;20057;-76
2022/04/15 11:57:13;;;;;;;9.10;6.53;;;13.10;99.90;;;;;;5027766;28;20053;-76
2022/04/15 11:59:40;;;;;;;11.33;6.60;;;13.10;99.90;;;;;;5032619;28;20041;-75
2022/04/15 12:02:08;;;;;;;6.80;5.23;;;13.20;99.90;;;;;;5009982;28;20111;-76
2022/04/15 12:04:34;;;;;;;10.17;5.93;;;13.20;99.90;;;;;;5016389;28;20050;-74
2022/04/15 12:06:59;;;;;;;10.43;6.30;;;13.10;99.90;;;;;;5021496;28;20049;-75
2022/04/15 12:09:26;;;;;;;8.40;5.57;;;13.10;99.90;;;;;;5024090;28;20045;-77
2022/04/15 12:11:52;;;;;;;8.47;6.17;;;13.10;99.90;;;;;;5017484;28;20172;-76
2022/04/15 12:14:18;;;;;;;9.03;5.90;;;13.20;99.90;;;;;;5021548;28;20060;-74
2022/04/15 12:16:45;;;;;;;12.43;6.67;;;13.20;99.90;;;;;;5011851;28;20567;-75
2022/04/15 12:19:13;;;;;;;12.17;6.93;;;13.30;99.90;;;;;;5005953;28;20057;-74
2022/04/15 12:21:39;;;;;;;10.70;6.53;;;13.20;99.90;;;;;;5015058;28;20132;-75
2022/04/15 12:24:06;;;;;;;10.77;6.60;;;13.20;99.90;;;;;;5013820;28;20041;-74
2022/04/15 12:26:43;;;;;;;11.50;6.13;;;13.20;99.90;;;;;;5022887;28;20038;-76
2022/04/15 12:31:54;;;;;;;8.70;6.07;;;13.00;99.90;;;;;;5022667;28;20037;-74
2022/04/15 12:34:31;;;;;;;9.23;5.90;;;13.10;99.90;;;;;;5005797;28;20498;-75
2022/04/15 12:36:57;;;;;;;8.77;6.13;;;13.00;99.90;;;;;;5020404;28;20111;-75
2022/04/15 12:39:23;;;;;;;8.87;6.03;;;13.00;99.90;;;;;;5019703;28;20045;-75
2022/04/15 12:41:49;;;;;;;9.57;5.80;;;12.90;99.90;;;;;;5025625;28;20486;-75
2022/04/15 12:44:17;;;;;;;9.07;5.97;;;12.90;99.90;;;;;;5018698;28;20108;-76
2022/04/15 12:46:45;;;;;;;9.37;6.30;;;12.90;99.90;;;;;;5005330;28;20038;-75
2022/04/15 12:49:24;;;;;;;11.00;6.90;;;12.90;99.90;;;;;;5002871;28;20037;-75